Semiplatinsk, Semipalatinsk Semey Airport (UASS)

NameSemipalatinsk Semey Airport
CitySemiplatinsk
CountryKazakhstan
ICAOUASS
IATAPLX
Altitude232 m
CoordinatesGoogle Map
Live Air TrafficLiveATC.net
METARUASS 111700Z 10002MPS CAVOK M14/M16 Q1043 R26/450550 NOSIG RMK QFE763/1018
2019-11-11 17:00:00 Wind: East (100°) 2 m/s - Visibility: > 10000 m - Weather: CAVOK - Temperature: -14 °C - Dew point: -16 °C - Humidity: 85% - Pressure: 1043 hPa
Statistics

The table below shows the detailed information of all flights to/from Semiplatinsk, Semipalatinsk Semey Airport (UASS).